createdAt,value
2018-06-16T00:00:32.251Z,81.60
2018-06-16T00:03:01.114Z,81.50
2018-06-16T00:05:29.942Z,81.50
2018-06-16T00:07:58.809Z,81.40
2018-06-16T00:10:27.670Z,81.40
2018-06-16T00:12:56.504Z,81.30
2018-06-16T00:15:25.333Z,81.30
2018-06-16T00:17:54.214Z,81.30
2018-06-16T00:20:23.217Z,81.30
2018-06-16T00:22:52.110Z,81.10
2018-06-16T00:25:20.930Z,81.10
2018-06-16T00:27:49.746Z,81.10
2018-06-16T00:30:18.563Z,81.70
2018-06-16T00:32:47.398Z,81.00
2018-06-16T00:35:16.303Z,81.00
2018-06-16T00:37:45.171Z,81.20
2018-06-16T00:40:14.006Z,81.00
2018-06-16T00:42:42.833Z,80.90
2018-06-16T00:45:11.722Z,80.90
2018-06-16T00:47:40.533Z,81.00
2018-06-16T00:52:38.007Z,81.00
2018-06-16T00:55:07.534Z,81.10
2018-06-16T00:57:46.777Z,81.00
2018-06-16T01:00:16.784Z,80.90
2018-06-16T01:02:45.867Z,81.00
2018-06-16T01:05:14.840Z,81.00
2018-06-16T01:07:43.645Z,81.10
2018-06-16T01:10:12.909Z,81.10
2018-06-16T01:12:41.798Z,81.10
2018-06-16T01:15:10.670Z,81.00
2018-06-16T01:17:39.570Z,81.10
2018-06-16T01:20:08.410Z,81.00
2018-06-16T01:22:37.303Z,81.10
2018-06-16T01:25:06.121Z,81.10
2018-06-16T01:27:35.017Z,81.10
2018-06-16T01:30:03.918Z,81.20
2018-06-16T01:32:32.758Z,81.10
2018-06-16T01:35:01.574Z,81.10
2018-06-16T01:37:30.435Z,81.10
2018-06-16T01:39:59.241Z,81.10
2018-06-16T01:42:28.121Z,81.20
2018-06-16T01:44:56.942Z,81.10
2018-06-16T01:47:25.820Z,81.20
2018-06-16T01:49:54.670Z,81.20
2018-06-16T01:52:23.522Z,81.20
2018-06-16T01:54:52.374Z,81.30
2018-06-16T01:57:21.264Z,81.20
2018-06-16T01:59:50.071Z,81.30
2018-06-16T02:02:18.941Z,81.30
2018-06-16T02:04:47.907Z,81.30
2018-06-16T02:07:16.782Z,81.30
2018-06-16T02:09:45.637Z,81.30
2018-06-16T02:12:14.526Z,81.40
2018-06-16T02:14:43.551Z,81.40
2018-06-16T02:22:18.053Z,81.50
2018-06-16T02:24:46.957Z,81.50
2018-06-16T02:27:15.795Z,81.50
2018-06-16T02:29:44.606Z,81.60
2018-06-16T02:32:13.431Z,81.60
2018-06-16T02:34:42.263Z,81.60
2018-06-16T02:37:11.154Z,81.60
2018-06-16T02:39:39.974Z,81.70
2018-06-16T02:42:08.817Z,81.70
2018-06-16T02:44:37.690Z,81.80
2018-06-16T02:47:06.507Z,81.80
2018-06-16T02:49:35.367Z,81.80
2018-06-16T02:52:04.258Z,81.90
2018-06-16T02:54:33.200Z,81.80
2018-06-16T02:57:02.142Z,81.90
2018-06-16T02:59:31.013Z,82.00
2018-06-16T03:04:37.261Z,82.00
2018-06-16T03:07:06.167Z,82.00
2018-06-16T03:09:35.090Z,82.00
2018-06-16T03:12:03.931Z,82.10
2018-06-16T03:14:32.759Z,82.20
2018-06-16T03:17:01.614Z,82.20
2018-06-16T03:19:30.598Z,82.20
2018-06-16T03:21:59.412Z,82.30
2018-06-16T03:24:28.258Z,82.10
2018-06-16T03:26:57.070Z,82.30
2018-06-16T03:29:25.907Z,82.30
2018-06-16T03:34:23.341Z,82.30
2018-06-16T03:36:52.198Z,82.30
2018-06-16T03:39:21.026Z,82.40
2018-06-16T03:41:49.907Z,82.40
2018-06-16T03:44:18.770Z,82.40
2018-06-16T03:46:47.778Z,82.30
2018-06-16T03:49:16.579Z,82.40
2018-06-16T03:51:45.390Z,82.30
2018-06-16T03:54:14.378Z,82.20
2018-06-16T03:56:43.251Z,82.20
2018-06-16T03:59:12.275Z,82.20
2018-06-16T04:04:09.641Z,82.10
2018-06-16T04:06:38.582Z,82.10
2018-06-16T04:09:08.674Z,82.00
2018-06-16T04:11:37.754Z,81.90
2018-06-16T04:14:06.604Z,81.80
2018-06-16T04:16:35.509Z,81.80
2018-06-16T04:19:04.338Z,81.70
2018-06-16T04:21:33.190Z,81.60
2018-06-16T04:24:02.080Z,81.60
2018-06-16T04:26:30.922Z,81.50
2018-06-16T04:28:59.817Z,81.50
2018-06-16T04:31:28.693Z,81.40
2018-06-16T04:33:58.161Z,81.50
2018-06-16T04:36:27.026Z,81.40
2018-06-16T04:38:55.881Z,81.40
2018-06-16T04:41:24.735Z,81.40
2018-06-16T04:43:53.618Z,81.20
2018-06-16T04:48:50.946Z,81.10
2018-06-16T04:51:19.758Z,80.90
2018-06-16T04:53:48.574Z,80.70
2018-06-16T04:56:17.418Z,80.70
2018-06-16T04:58:46.249Z,80.70
2018-06-16T05:01:15.132Z,80.50
2018-06-16T05:03:44.717Z,80.40
2018-06-16T05:06:13.634Z,80.40
2018-06-16T05:08:42.634Z,80.30
2018-06-16T05:11:12.475Z,80.90
2018-06-16T05:13:41.300Z,80.20
2018-06-16T05:16:10.190Z,80.10
2018-06-16T05:18:39.058Z,80.00
2018-06-16T05:21:07.897Z,80.10
2018-06-16T05:23:36.778Z,80.10
2018-06-16T05:26:05.622Z,80.00
2018-06-16T05:28:34.612Z,80.10
2018-06-16T05:31:03.525Z,80.00
2018-06-16T05:33:32.444Z,80.10
2018-06-16T05:36:01.364Z,80.00
2018-06-16T05:38:30.299Z,80.00
2018-06-16T05:40:59.083Z,80.00
2018-06-16T05:43:28.146Z,79.90
2018-06-16T05:45:56.982Z,79.90
2018-06-16T05:48:25.842Z,79.80
2018-06-16T05:50:54.834Z,79.50
2018-06-16T05:53:23.664Z,79.50
2018-06-16T05:55:52.554Z,79.30
2018-06-16T05:58:21.450Z,79.20
2018-06-16T06:00:50.302Z,79.00
2018-06-16T06:03:19.244Z,78.80
2018-06-16T06:05:48.107Z,78.70
2018-06-16T06:08:16.933Z,78.60
2018-06-16T06:10:45.765Z,78.40
2018-06-16T06:13:14.615Z,78.30
2018-06-16T06:15:43.547Z,78.30
2018-06-16T06:18:12.370Z,78.20
2018-06-16T06:20:41.279Z,78.30
2018-06-16T06:25:38.587Z,78.30
2018-06-16T06:28:07.465Z,78.30
2018-06-16T06:30:36.372Z,78.30
2018-06-16T06:33:05.203Z,78.00
2018-06-16T06:35:34.063Z,78.20
2018-06-16T06:38:02.890Z,78.20
2018-06-16T06:40:31.767Z,78.30
2018-06-16T06:43:00.596Z,78.20
2018-06-16T06:45:29.498Z,78.30
2018-06-16T06:47:58.375Z,78.20
2018-06-16T06:50:27.813Z,78.30
2018-06-16T06:52:56.663Z,78.20
2018-06-16T06:55:25.518Z,78.20
2018-06-16T06:57:54.410Z,78.20
2018-06-16T07:00:23.284Z,78.20
2018-06-16T07:02:52.223Z,78.10
2018-06-16T07:05:21.106Z,78.10
2018-06-16T07:07:49.995Z,78.00
2018-06-16T07:10:18.954Z,78.00
2018-06-16T07:12:47.845Z,78.00
2018-06-16T07:15:16.788Z,78.00
2018-06-16T07:17:45.647Z,77.90
2018-06-16T07:20:14.502Z,77.90
2018-06-16T07:22:43.319Z,77.80
2018-06-16T07:25:12.210Z,77.80
2018-06-16T07:27:41.042Z,77.80
2018-06-16T07:30:09.868Z,77.70
2018-06-16T07:32:38.776Z,77.60
2018-06-16T07:35:07.714Z,77.60
2018-06-16T07:37:36.798Z,77.60
2018-06-16T07:40:05.654Z,77.50
2018-06-16T07:42:34.587Z,76.50
2018-06-16T07:47:31.990Z,76.60
2018-06-16T07:50:00.859Z,76.20
2018-06-16T07:52:30.050Z,75.70
2018-06-16T07:54:59.264Z,76.20
2018-06-16T07:57:28.335Z,75.80
2018-06-16T07:59:57.191Z,75.60
2018-06-16T08:02:26.052Z,75.80
2018-06-16T08:04:54.862Z,75.40
2018-06-16T08:07:23.710Z,75.30
2018-06-16T08:09:52.833Z,75.00
2018-06-16T08:12:21.694Z,75.20
2018-06-16T08:14:50.530Z,75.00
2018-06-16T08:17:19.398Z,74.90
2018-06-16T08:19:48.226Z,75.40
2018-06-16T08:24:45.599Z,74.20
2018-06-16T08:27:14.474Z,73.90
2018-06-16T08:29:43.283Z,74.00
2018-06-16T08:34:40.638Z,73.30
2018-06-16T08:39:38.030Z,72.80
2018-06-16T08:42:06.898Z,73.20
2018-06-16T08:44:35.774Z,73.00
2018-06-16T08:47:04.674Z,73.20
2018-06-16T08:49:33.551Z,72.80
2018-06-16T08:52:02.390Z,73.00
2018-06-16T08:54:31.423Z,72.90
2018-06-16T08:57:00.218Z,72.90
2018-06-16T08:59:29.109Z,73.20
2018-06-16T09:01:58.129Z,73.00
2018-06-16T09:04:27.018Z,71.10
2018-06-16T09:06:55.834Z,70.80
2018-06-16T09:09:24.680Z,69.90
2018-06-16T09:11:53.584Z,69.10
2018-06-16T09:14:22.489Z,68.90
2018-06-16T09:16:51.323Z,68.90
2018-06-16T09:19:20.174Z,68.70
2018-06-16T09:21:49.097Z,68.50
2018-06-16T09:24:17.925Z,68.60
2018-06-16T09:26:46.774Z,69.00
2018-06-16T09:29:15.626Z,69.50
2018-06-16T09:31:44.456Z,70.20
2018-06-16T09:34:13.311Z,70.30
2018-06-16T09:36:42.191Z,70.30
2018-06-16T09:39:11.899Z,69.70
2018-06-16T09:41:40.770Z,69.50
2018-06-16T09:46:38.300Z,69.70
2018-06-16T09:49:07.157Z,70.60
2018-06-16T09:51:36.165Z,69.20
2018-06-16T09:54:04.995Z,68.60
2018-06-16T09:56:33.810Z,68.80
2018-06-16T10:01:31.214Z,67.90
2018-06-16T10:04:00.214Z,67.30
2018-06-16T10:06:29.111Z,66.60
2018-06-16T10:08:57.933Z,66.00
2018-06-16T10:11:26.786Z,65.40
2018-06-16T10:13:55.683Z,66.20
2018-06-16T10:16:24.488Z,65.60
2018-06-16T10:18:53.383Z,64.70
2018-06-16T10:21:22.257Z,64.10
2018-06-16T10:23:51.043Z,62.70
2018-06-16T10:26:19.930Z,62.90
2018-06-16T10:28:49.087Z,62.50
2018-06-16T10:31:17.969Z,62.10
2018-06-16T10:33:46.884Z,62.50
2018-06-16T10:36:15.738Z,61.40
2018-06-16T10:38:44.689Z,60.40
2018-06-16T10:41:13.529Z,57.50
2018-06-16T10:43:42.402Z,60.70
2018-06-16T10:46:11.250Z,59.90
2018-06-16T10:48:40.103Z,59.90
2018-06-16T10:51:09.827Z,59.30
2018-06-16T10:53:38.687Z,58.50
2018-06-16T10:56:07.580Z,58.50
2018-06-16T10:58:36.479Z,59.20
2018-06-16T11:01:05.374Z,58.60
2018-06-16T11:03:34.261Z,58.70
2018-06-16T11:06:03.142Z,59.10
2018-06-16T11:08:31.967Z,58.40
2018-06-16T11:11:00.848Z,57.50
2018-06-16T11:13:29.701Z,57.90
2018-06-16T11:15:58.578Z,57.20
2018-06-16T11:20:55.915Z,55.60
2018-06-16T11:23:24.819Z,57.30
2018-06-16T11:25:53.658Z,56.10
2018-06-16T11:28:22.523Z,54.90
2018-06-16T11:30:51.359Z,55.30
2018-06-16T11:33:20.215Z,53.10
2018-06-16T11:35:49.222Z,54.10
2018-06-16T11:38:18.113Z,52.80
2018-06-16T11:40:46.989Z,52.50
2018-06-16T11:43:15.892Z,51.00
2018-06-16T11:45:44.933Z,51.60
2018-06-16T11:50:52.188Z,53.00
2018-06-16T11:53:21.018Z,50.70
2018-06-16T11:55:49.906Z,53.50
2018-06-16T11:58:18.762Z,50.60
2018-06-16T12:00:47.587Z,50.20
2018-06-16T12:03:16.468Z,49.30
2018-06-16T12:05:45.346Z,49.70
2018-06-16T12:08:14.230Z,50.40
2018-06-16T12:10:43.098Z,49.20
2018-06-16T12:13:12.947Z,48.10
2018-06-16T12:15:41.837Z,47.60
2018-06-16T12:18:10.691Z,50.20
2018-06-16T12:20:39.587Z,50.20
2018-06-16T12:23:08.438Z,50.40
2018-06-16T12:25:37.287Z,51.40
2018-06-16T12:28:06.135Z,49.50
2018-06-16T12:30:35.058Z,50.20
2018-06-16T12:33:03.914Z,51.60
2018-06-16T12:35:32.798Z,51.80
2018-06-16T12:38:01.746Z,51.30
2018-06-16T12:40:30.997Z,49.90
2018-06-16T12:42:59.937Z,50.00
2018-06-16T12:45:28.798Z,51.00
2018-06-16T12:47:58.637Z,50.70
2018-06-16T12:50:27.515Z,50.60
2018-06-16T12:52:56.352Z,50.50
2018-06-16T12:55:25.186Z,51.40
2018-06-16T12:57:54.064Z,51.00
2018-06-16T13:00:22.859Z,51.40
2018-06-16T13:02:51.986Z,51.00
2018-06-16T13:07:49.354Z,53.00
2018-06-16T13:10:18.387Z,53.40
2018-06-16T13:12:47.210Z,54.40
2018-06-16T13:15:16.043Z,53.90
2018-06-16T13:17:44.886Z,55.20
2018-06-16T13:20:13.758Z,54.30
2018-06-16T13:22:42.577Z,54.30
2018-06-16T13:25:11.518Z,54.40
2018-06-16T13:27:40.459Z,54.30
2018-06-16T13:30:09.330Z,55.00
2018-06-16T13:32:38.227Z,54.70
2018-06-16T13:35:07.046Z,54.40
2018-06-16T13:37:35.974Z,54.80
2018-06-16T13:40:04.809Z,54.90
2018-06-16T13:42:33.634Z,55.20
2018-06-16T13:45:02.541Z,55.90
2018-06-16T13:47:31.386Z,56.60
2018-06-16T13:52:28.914Z,57.40
2018-06-16T13:54:57.747Z,57.70
2018-06-16T13:59:55.150Z,59.90
2018-06-16T14:02:24.030Z,60.60
2018-06-16T14:04:52.991Z,61.60
2018-06-16T14:07:21.811Z,62.50
2018-06-16T14:12:19.230Z,64.90
2018-06-16T14:14:48.174Z,63.90
2018-06-16T14:17:16.974Z,63.60
2018-06-16T14:19:45.818Z,63.10
2018-06-16T14:24:43.194Z,63.80
2018-06-16T14:29:40.630Z,63.20
2018-06-16T14:32:09.476Z,63.20
2018-06-16T14:34:38.324Z,63.00
2018-06-16T14:37:07.223Z,63.20
2018-06-16T14:39:36.074Z,63.00
2018-06-16T14:42:05.509Z,62.60
2018-06-16T14:44:34.362Z,61.90
2018-06-16T14:47:04.193Z,61.40
2018-06-16T14:49:33.075Z,61.50
2018-06-16T14:52:01.997Z,60.70
2018-06-16T14:54:30.924Z,60.60
2018-06-16T14:56:59.840Z,60.20
2018-06-16T14:59:28.853Z,60.40
2018-06-16T15:01:57.725Z,60.80
2018-06-16T15:04:26.792Z,61.20
2018-06-16T15:06:55.618Z,60.60
2018-06-16T15:09:24.695Z,61.40
2018-06-16T15:11:53.558Z,62.00
2018-06-16T15:14:22.470Z,62.30
2018-06-16T15:16:51.333Z,62.20
2018-06-16T15:19:20.213Z,61.90
2018-06-16T15:21:49.054Z,62.30
2018-06-16T15:24:17.943Z,62.20
2018-06-16T15:26:46.849Z,63.60
2018-06-16T15:29:15.687Z,64.40
2018-06-16T15:31:44.526Z,64.60
2018-06-16T15:34:13.478Z,64.40
2018-06-16T15:36:42.407Z,64.60
2018-06-16T15:39:11.650Z,64.70
2018-06-16T15:41:40.731Z,64.90
2018-06-16T15:44:10.070Z,64.80
2018-06-16T15:46:39.137Z,65.00
2018-06-16T15:49:07.994Z,64.90
2018-06-16T15:51:36.967Z,65.30
2018-06-16T15:54:05.930Z,65.50
2018-06-16T15:56:34.787Z,65.90
2018-06-16T15:59:03.658Z,66.10
2018-06-16T16:01:32.545Z,66.10
2018-06-16T16:04:01.416Z,66.40
2018-06-16T16:06:30.326Z,66.60
2018-06-16T16:08:59.254Z,66.60
2018-06-16T16:11:28.160Z,66.60
2018-06-16T16:13:56.998Z,66.80
2018-06-16T16:16:26.017Z,66.90
2018-06-16T16:18:54.978Z,67.00
2018-06-16T16:21:23.879Z,67.20
2018-06-16T16:26:21.271Z,66.90
2018-06-16T16:28:50.222Z,66.80
2018-06-16T16:31:19.042Z,67.10
2018-06-16T16:33:47.961Z,67.10
2018-06-16T16:36:16.834Z,67.20
2018-06-16T16:38:45.915Z,67.20
2018-06-16T16:41:14.759Z,67.20
2018-06-16T16:43:43.618Z,67.10
2018-06-16T16:46:12.631Z,67.10
2018-06-16T16:48:41.720Z,67.20
2018-06-16T16:51:10.656Z,67.10
2018-06-16T16:53:39.565Z,66.90
2018-06-16T16:56:08.430Z,66.80
2018-06-16T17:01:06.134Z,66.70
2018-06-16T17:03:35.065Z,66.80
2018-06-16T17:06:04.038Z,67.30
2018-06-16T17:08:33.238Z,67.70
2018-06-16T17:11:03.641Z,68.10
2018-06-16T17:13:33.111Z,68.40
2018-06-16T17:18:30.702Z,68.40
2018-06-16T17:20:59.578Z,68.30
2018-06-16T17:23:28.499Z,68.60
2018-06-16T17:25:57.353Z,68.70
2018-06-16T17:28:26.285Z,69.00
2018-06-16T17:30:55.151Z,68.90
2018-06-16T17:33:24.033Z,69.00
2018-06-16T17:35:52.925Z,68.30
2018-06-16T17:38:22.294Z,68.30
2018-06-16T17:40:51.197Z,67.10
2018-06-16T17:43:20.055Z,65.90
2018-06-16T17:45:48.886Z,65.90
2018-06-16T17:48:17.862Z,65.20
2018-06-16T17:50:46.697Z,64.30
2018-06-16T17:53:15.675Z,63.80
2018-06-16T17:55:44.564Z,63.20
2018-06-16T17:58:13.389Z,62.70
2018-06-16T18:00:42.279Z,62.30
2018-06-16T18:03:11.375Z,61.90
2018-06-16T18:05:40.227Z,61.50
2018-06-16T18:08:09.163Z,61.30
2018-06-16T18:10:38.035Z,60.90
2018-06-16T18:13:07.022Z,60.20
2018-06-16T18:15:35.986Z,60.20
2018-06-16T18:18:05.122Z,60.00
2018-06-16T18:20:33.983Z,61.40
2018-06-16T18:23:02.822Z,61.70
2018-06-16T18:25:31.750Z,60.10
2018-06-16T18:28:00.542Z,59.30
2018-06-16T18:30:29.450Z,58.80
2018-06-16T18:32:58.483Z,58.40
2018-06-16T18:35:27.398Z,59.90
2018-06-16T18:40:25.011Z,62.00
2018-06-16T18:42:54.018Z,62.70
2018-06-16T18:45:22.922Z,63.20
2018-06-16T18:47:51.882Z,62.70
2018-06-16T18:50:20.889Z,62.00
2018-06-16T18:52:50.090Z,62.30
2018-06-16T18:55:19.202Z,63.40
2018-06-16T18:57:48.090Z,62.90
2018-06-16T19:00:17.002Z,63.00
2018-06-16T19:02:45.886Z,63.20
2018-06-16T19:05:14.770Z,63.30
2018-06-16T19:07:43.711Z,63.60
2018-06-16T19:10:12.622Z,63.30
2018-06-16T19:12:41.518Z,63.40
2018-06-16T19:15:10.447Z,63.60
2018-06-16T19:20:08.089Z,63.80
2018-06-16T19:22:36.966Z,64.10
2018-06-16T19:25:05.888Z,64.30
2018-06-16T19:27:34.795Z,64.60
2018-06-16T19:32:32.247Z,65.20
2018-06-16T19:35:01.306Z,65.80
2018-06-16T19:37:30.206Z,66.10
2018-06-16T19:39:59.094Z,66.70
2018-06-16T19:42:28.001Z,67.10
2018-06-16T19:44:56.872Z,67.50
2018-06-16T19:47:25.758Z,68.00
2018-06-16T19:49:54.674Z,68.20
2018-06-16T19:52:24.111Z,68.70
2018-06-16T19:54:53.201Z,68.70
2018-06-16T19:59:50.607Z,69.20
2018-06-16T20:02:19.563Z,69.30
2018-06-16T20:04:48.451Z,69.40
2018-06-16T20:07:17.371Z,69.60
2018-06-16T20:09:46.211Z,69.70
2018-06-16T20:12:15.101Z,69.90
2018-06-16T20:14:43.946Z,70.00
2018-06-16T20:17:12.811Z,70.20
2018-06-16T20:19:41.702Z,70.20
2018-06-16T20:22:10.569Z,70.30
2018-06-16T20:24:39.499Z,70.40
2018-06-16T20:27:08.510Z,70.50
2018-06-16T20:29:37.538Z,70.50
2018-06-16T20:32:06.422Z,70.50
2018-06-16T20:34:35.288Z,70.60
2018-06-16T20:37:04.118Z,70.70
2018-06-16T20:39:32.958Z,70.80
2018-06-16T20:42:01.859Z,70.90
2018-06-16T20:44:30.686Z,70.70
2018-06-16T20:46:59.538Z,71.00
2018-06-16T20:49:28.403Z,70.90
2018-06-16T20:51:57.294Z,71.90
2018-06-16T20:54:26.134Z,71.40
2018-06-16T20:56:54.982Z,71.60
2018-06-16T20:59:23.875Z,71.70
2018-06-16T21:01:52.706Z,71.70
2018-06-16T21:06:50.050Z,71.90
2018-06-16T21:09:18.908Z,72.10
2018-06-16T21:11:47.858Z,72.00
2018-06-16T21:14:16.762Z,72.20
2018-06-16T21:16:45.728Z,72.30
2018-06-16T21:19:14.567Z,72.40
2018-06-16T21:21:43.374Z,72.40
2018-06-16T21:24:12.322Z,72.60
2018-06-16T21:26:41.185Z,72.60
2018-06-16T21:29:10.085Z,72.60
2018-06-16T21:31:38.923Z,72.60
2018-06-16T21:34:07.882Z,72.70
2018-06-16T21:36:36.687Z,72.70
2018-06-16T21:39:06.810Z,72.60
2018-06-16T21:41:35.728Z,72.60
2018-06-16T21:44:04.548Z,72.40
2018-06-16T21:46:33.526Z,72.20
2018-06-16T21:49:02.450Z,72.00
2018-06-16T21:51:31.275Z,71.90
2018-06-16T21:54:00.309Z,72.00
2018-06-16T21:56:29.361Z,72.00
2018-06-16T21:58:58.194Z,71.80
2018-06-16T22:01:32.324Z,72.00
2018-06-16T22:04:01.538Z,71.90
2018-06-16T22:06:30.370Z,71.90
2018-06-16T22:08:59.263Z,72.10
2018-06-16T22:11:28.147Z,72.20
2018-06-16T22:16:25.500Z,72.40
2018-06-16T22:18:54.360Z,72.40
2018-06-16T22:21:23.180Z,72.40
2018-06-16T22:23:51.990Z,72.60
2018-06-16T22:26:20.815Z,72.70
2018-06-16T22:28:49.669Z,72.80
2018-06-16T22:31:18.541Z,72.80
2018-06-16T22:33:47.429Z,72.90
2018-06-16T22:36:16.290Z,72.90
2018-06-16T22:38:45.371Z,72.90
2018-06-16T22:41:14.238Z,72.90
2018-06-16T22:43:43.193Z,72.90
2018-06-16T22:46:12.048Z,72.80
2018-06-16T22:48:40.974Z,72.90
2018-06-16T22:51:09.813Z,72.80
2018-06-16T22:53:38.662Z,72.70
2018-06-16T22:56:07.631Z,72.80
2018-06-16T22:58:36.445Z,72.70
2018-06-16T23:01:05.292Z,72.60
2018-06-16T23:03:34.183Z,72.60
2018-06-16T23:06:02.995Z,72.60
2018-06-16T23:08:31.850Z,72.70
2018-06-16T23:11:00.730Z,72.70
2018-06-16T23:13:29.546Z,72.70
2018-06-16T23:15:58.378Z,72.70
2018-06-16T23:18:27.301Z,72.70
2018-06-16T23:20:56.154Z,72.90
2018-06-16T23:23:24.981Z,72.80
2018-06-16T23:25:53.834Z,72.70
2018-06-16T23:28:22.721Z,72.70
2018-06-16T23:30:51.578Z,72.70
2018-06-16T23:33:20.474Z,72.60
2018-06-16T23:35:49.314Z,72.60
2018-06-16T23:38:18.150Z,72.70
2018-06-16T23:40:46.986Z,72.70
2018-06-16T23:43:15.896Z,72.60
2018-06-16T23:45:44.738Z,72.70
2018-06-16T23:48:13.566Z,72.70
2018-06-16T23:50:42.437Z,72.70
2018-06-16T23:53:11.254Z,72.60
2018-06-16T23:55:40.272Z,72.80
2018-06-16T23:58:09.218Z,72.90
